sensor_id;sensor_type;location;lat;lon;timestamp;temperature;humidity
18729;DHT22;9493;51.884;5.188;2022-12-18T00:02:01;-3.20;99.90
18729;DHT22;9493;51.884;5.188;2022-12-18T00:04:28;-3.30;99.90
18729;DHT22;9493;51.884;5.188;2022-12-18T00:06:57;-3.30;99.90
18729;DHT22;9493;51.884;5.188;2022-12-18T00:09:24;-3.30;99.90
18729;DHT22;9493;51.884;5.188;2022-12-18T00:11:50;-3.30;99.90
18729;DHT22;9493;51.884;5.188;2022-12-18T00:14:17;-3.30;99.90
18729;DHT22;9493;51.884;5.188;2022-12-18T00:16:45;-3.20;99.90
18729;DHT22;9493;51.884;5.188;2022-12-18T00:19:13;-3.20;99.90
18729;DHT22;9493;51.884;5.188;2022-12-18T00:21:41;-3.20;99.90
18729;DHT22;9493;51.884;5.188;2022-12-18T00:24:10;-3.20;99.90
18729;DHT22;9493;51.884;5.188;2022-12-18T00:26:39;-3.20;99.90
18729;DHT22;9493;51.884;5.188;2022-12-18T00:29:07;-3.30;99.90
18729;DHT22;9493;51.884;5.188;2022-12-18T00:31:35;-3.30;99.90
18729;DHT22;9493;51.884;5.188;2022-12-18T00:34:02;-3.30;99.90
18729;DHT22;9493;51.884;5.188;2022-12-18T00:36:31;-3.40;99.90
18729;DHT22;9493;51.884;5.188;2022-12-18T00:39:00;-3.50;99.90
18729;DHT22;9493;51.884;5.188;2022-12-18T00:41:29;-3.60;99.90
18729;DHT22;9493;51.884;5.188;2022-12-18T00:44:16;-3.60;99.90
18729;DHT22;9493;51.884;5.188;2022-12-18T00:46:44;-3.70;99.90
18729;DHT22;9493;51.884;5.188;2022-12-18T00:49:11;-3.70;99.90
18729;DHT22;9493;51.884;5.188;2022-12-18T00:51:40;-3.70;99.90
18729;DHT22;9493;51.884;5.188;2022-12-18T00:54:07;-3.70;99.90
18729;DHT22;9493;51.884;5.188;2022-12-18T00:56:36;-3.60;99.90
18729;DHT22;9493;51.884;5.188;2022-12-18T00:59:04;-3.70;99.90
18729;DHT22;9493;51.884;5.188;2022-12-18T01:01:31;-3.60;99.90
18729;DHT22;9493;51.884;5.188;2022-12-18T01:03:58;-3.70;99.90
18729;DHT22;9493;51.884;5.188;2022-12-18T01:06:25;-3.70;99.90
18729;DHT22;9493;51.884;5.188;2022-12-18T01:08:52;-3.60;99.90
18729;DHT22;9493;51.884;5.188;2022-12-18T01:11:20;-3.70;99.90
18729;DHT22;9493;51.884;5.188;2022-12-18T01:13:48;-3.70;99.90
18729;DHT22;9493;51.884;5.188;2022-12-18T01:16:17;-3.70;99.90
18729;DHT22;9493;51.884;5.188;2022-12-18T01:18:44;-3.70;99.90
18729;DHT22;9493;51.884;5.188;2022-12-18T01:21:14;-3.70;99.90
18729;DHT22;9493;51.884;5.188;2022-12-18T01:23:41;-3.70;99.90
18729;DHT22;9493;51.884;5.188;2022-12-18T01:26:15;-3.80;99.90
18729;DHT22;9493;51.884;5.188;2022-12-18T01:28:42;-3.80;99.90
18729;DHT22;9493;51.884;5.188;2022-12-18T01:31:17;-3.70;99.90
18729;DHT22;9493;51.884;5.188;2022-12-18T01:33:44;-3.90;99.90
18729;DHT22;9493;51.884;5.188;2022-12-18T01:36:18;-3.90;99.90
18729;DHT22;9493;51.884;5.188;2022-12-18T01:38:45;-3.90;99.90
18729;DHT22;9493;51.884;5.188;2022-12-18T01:41:13;-3.90;99.90
18729;DHT22;9493;51.884;5.188;2022-12-18T01:43:42;-3.90;99.90
18729;DHT22;9493;51.884;5.188;2022-12-18T01:46:09;-3.90;99.90
18729;DHT22;9493;51.884;5.188;2022-12-18T01:48:39;-3.90;99.90
18729;DHT22;9493;51.884;5.188;2022-12-18T01:51:08;-4.00;99.90
18729;DHT22;9493;51.884;5.188;2022-12-18T01:53:37;-3.90;99.90
18729;DHT22;9493;51.884;5.188;2022-12-18T01:56:06;-4.00;99.90
18729;DHT22;9493;51.884;5.188;2022-12-18T01:58:40;-4.00;99.90
18729;DHT22;9493;51.884;5.188;2022-12-18T02:01:09;-4.10;99.90
18729;DHT22;9493;51.884;5.188;2022-12-18T02:03:40;-4.20;99.90
18729;DHT22;9493;51.884;5.188;2022-12-18T02:06:12;-4.10;99.90
18729;DHT22;9493;51.884;5.188;2022-12-18T02:08:48;-4.10;99.90
18729;DHT22;9493;51.884;5.188;2022-12-18T02:11:21;-4.20;99.90
18729;DHT22;9493;51.884;5.188;2022-12-18T02:13:56;-4.20;99.90
18729;DHT22;9493;51.884;5.188;2022-12-18T02:16:33;-4.30;99.90
18729;DHT22;9493;51.884;5.188;2022-12-18T02:19:08;-4.20;99.90
18729;DHT22;9493;51.884;5.188;2022-12-18T02:21:46;-4.30;99.90
18729;DHT22;9493;51.884;5.188;2022-12-18T02:24:28;-4.30;99.90
18729;DHT22;9493;51.884;5.188;2022-12-18T02:26:59;-4.40;99.90
18729;DHT22;9493;51.884;5.188;2022-12-18T02:29:31;-4.40;99.90
18729;DHT22;9493;51.884;5.188;2022-12-18T02:31:59;-4.40;99.90
18729;DHT22;9493;51.884;5.188;2022-12-18T02:34:30;-4.40;99.90
18729;DHT22;9493;51.884;5.188;2022-12-18T02:37:04;-4.40;99.90
18729;DHT22;9493;51.884;5.188;2022-12-18T02:39:33;-4.50;99.90
18729;DHT22;9493;51.884;5.188;2022-12-18T02:42:02;-4.50;99.90
18729;DHT22;9493;51.884;5.188;2022-12-18T02:44:33;-4.50;99.90
18729;DHT22;9493;51.884;5.188;2022-12-18T02:47:00;-4.50;99.90
18729;DHT22;9493;51.884;5.188;2022-12-18T02:49:34;-4.50;99.90
18729;DHT22;9493;51.884;5.188;2022-12-18T02:52:09;-4.50;99.90
18729;DHT22;9493;51.884;5.188;2022-12-18T02:54:55;-4.20;99.90
18729;DHT22;9493;51.884;5.188;2022-12-18T02:57:33;-4.60;99.90
18729;DHT22;9493;51.884;5.188;2022-12-18T03:00:03;-4.50;99.90
18729;DHT22;9493;51.884;5.188;2022-12-18T03:02:37;-4.50;99.90
18729;DHT22;9493;51.884;5.188;2022-12-18T03:05:11;-4.60;99.90
18729;DHT22;9493;51.884;5.188;2022-12-18T03:07:43;-4.50;99.90
18729;DHT22;9493;51.884;5.188;2022-12-18T03:10:17;-4.50;99.90
18729;DHT22;9493;51.884;5.188;2022-12-18T03:12:52;-4.60;99.90
18729;DHT22;9493;51.884;5.188;2022-12-18T03:15:24;-4.80;99.90
18729;DHT22;9493;51.884;5.188;2022-12-18T03:17:56;-4.70;99.90
18729;DHT22;9493;51.884;5.188;2022-12-18T03:20:25;-4.90;99.90
18729;DHT22;9493;51.884;5.188;2022-12-18T03:22:59;-4.80;99.90
18729;DHT22;9493;51.884;5.188;2022-12-18T03:25:29;-4.90;99.90
18729;DHT22;9493;51.884;5.188;2022-12-18T03:28:01;-4.90;99.90
18729;DHT22;9493;51.884;5.188;2022-12-18T03:30:29;-4.90;99.90
18729;DHT22;9493;51.884;5.188;2022-12-18T03:33:02;-5.00;99.90
18729;DHT22;9493;51.884;5.188;2022-12-18T03:35:34;-5.00;99.90
18729;DHT22;9493;51.884;5.188;2022-12-18T03:38:02;-5.00;99.90
18729;DHT22;9493;51.884;5.188;2022-12-18T03:40:38;-4.90;99.90
18729;DHT22;9493;51.884;5.188;2022-12-18T03:43:11;-5.00;99.90
18729;DHT22;9493;51.884;5.188;2022-12-18T03:45:43;-5.00;99.90
18729;DHT22;9493;51.884;5.188;2022-12-18T03:48:17;-5.00;99.90
18729;DHT22;9493;51.884;5.188;2022-12-18T03:50:48;-5.00;99.90
18729;DHT22;9493;51.884;5.188;2022-12-18T03:53:23;-5.00;99.90
18729;DHT22;9493;51.884;5.188;2022-12-18T03:55:52;-5.00;99.90
18729;DHT22;9493;51.884;5.188;2022-12-18T03:58:23;-5.10;99.90
18729;DHT22;9493;51.884;5.188;2022-12-18T04:00:52;-5.00;99.90
18729;DHT22;9493;51.884;5.188;2022-12-18T04:03:20;-5.10;99.90
18729;DHT22;9493;51.884;5.188;2022-12-18T04:05:49;-5.10;99.90
18729;DHT22;9493;51.884;5.188;2022-12-18T04:08:17;-5.10;99.90
18729;DHT22;9493;51.884;5.188;2022-12-18T04:10:46;-5.10;99.90
18729;DHT22;9493;51.884;5.188;2022-12-18T04:13:23;-5.10;99.90
18729;DHT22;9493;51.884;5.188;2022-12-18T04:15:50;-5.10;99.90
18729;DHT22;9493;51.884;5.188;2022-12-18T04:18:16;-5.10;99.90
18729;DHT22;9493;51.884;5.188;2022-12-18T04:20:43;-5.20;99.90
18729;DHT22;9493;51.884;5.188;2022-12-18T04:23:10;-5.10;99.90
18729;DHT22;9493;51.884;5.188;2022-12-18T04:25:37;-5.20;99.90
18729;DHT22;9493;51.884;5.188;2022-12-18T04:28:04;-5.20;99.90
18729;DHT22;9493;51.884;5.188;2022-12-18T04:30:32;-5.10;99.90
18729;DHT22;9493;51.884;5.188;2022-12-18T04:32:59;-5.20;99.90
18729;DHT22;9493;51.884;5.188;2022-12-18T04:35:26;-5.20;99.90
18729;DHT22;9493;51.884;5.188;2022-12-18T04:37:52;-5.20;99.90
18729;DHT22;9493;51.884;5.188;2022-12-18T04:40:19;-5.30;99.90
18729;DHT22;9493;51.884;5.188;2022-12-18T04:42:46;-5.30;99.90
18729;DHT22;9493;51.884;5.188;2022-12-18T04:45:13;-5.20;99.90
18729;DHT22;9493;51.884;5.188;2022-12-18T04:47:41;-5.30;99.90
18729;DHT22;9493;51.884;5.188;2022-12-18T04:50:08;-5.30;99.90
18729;DHT22;9493;51.884;5.188;2022-12-18T04:52:36;-5.30;99.90
18729;DHT22;9493;51.884;5.188;2022-12-18T04:55:03;-5.30;99.90
18729;DHT22;9493;51.884;5.188;2022-12-18T04:57:30;-5.20;99.90
18729;DHT22;9493;51.884;5.188;2022-12-18T04:59:57;-5.30;99.90
18729;DHT22;9493;51.884;5.188;2022-12-18T05:02:23;-5.30;99.90
18729;DHT22;9493;51.884;5.188;2022-12-18T05:04:52;-5.30;99.90
18729;DHT22;9493;51.884;5.188;2022-12-18T05:07:18;-5.30;99.90
18729;DHT22;9493;51.884;5.188;2022-12-18T05:09:45;-5.30;99.90
18729;DHT22;9493;51.884;5.188;2022-12-18T05:12:12;-5.30;99.90
18729;DHT22;9493;51.884;5.188;2022-12-18T05:14:39;-5.40;99.90
18729;DHT22;9493;51.884;5.188;2022-12-18T05:17:06;-5.30;99.90
18729;DHT22;9493;51.884;5.188;2022-12-18T05:19:32;-5.40;99.90
18729;DHT22;9493;51.884;5.188;2022-12-18T05:22:01;-5.40;99.90
18729;DHT22;9493;51.884;5.188;2022-12-18T05:24:27;-5.30;99.90
18729;DHT22;9493;51.884;5.188;2022-12-18T05:26:54;-5.40;99.90
18729;DHT22;9493;51.884;5.188;2022-12-18T05:29:21;-5.30;99.90
18729;DHT22;9493;51.884;5.188;2022-12-18T05:31:48;-5.30;99.90
18729;DHT22;9493;51.884;5.188;2022-12-18T05:34:15;-5.40;99.90
18729;DHT22;9493;51.884;5.188;2022-12-18T05:36:42;-5.30;99.90
18729;DHT22;9493;51.884;5.188;2022-12-18T05:39:10;-5.40;99.90
18729;DHT22;9493;51.884;5.188;2022-12-18T05:41:37;-5.40;99.90
18729;DHT22;9493;51.884;5.188;2022-12-18T05:44:04;-5.40;99.90
18729;DHT22;9493;51.884;5.188;2022-12-18T05:46:30;-5.40;99.90
18729;DHT22;9493;51.884;5.188;2022-12-18T05:48:59;-5.40;99.90
18729;DHT22;9493;51.884;5.188;2022-12-18T05:51:27;-5.40;99.90
18729;DHT22;9493;51.884;5.188;2022-12-18T05:53:53;-5.40;99.90
18729;DHT22;9493;51.884;5.188;2022-12-18T05:56:22;-5.40;99.90
18729;DHT22;9493;51.884;5.188;2022-12-18T05:58:51;-5.30;99.90
18729;DHT22;9493;51.884;5.188;2022-12-18T06:01:21;-5.40;99.90
18729;DHT22;9493;51.884;5.188;2022-12-18T06:03:48;-5.40;99.90
18729;DHT22;9493;51.884;5.188;2022-12-18T06:06:16;-5.40;99.90
18729;DHT22;9493;51.884;5.188;2022-12-18T06:08:43;-5.40;99.90
18729;DHT22;9493;51.884;5.188;2022-12-18T06:11:10;-5.40;99.90
18729;DHT22;9493;51.884;5.188;2022-12-18T06:13:38;-5.40;99.90
18729;DHT22;9493;51.884;5.188;2022-12-18T06:16:05;-5.40;99.90
18729;DHT22;9493;51.884;5.188;2022-12-18T06:18:33;-5.40;99.90
18729;DHT22;9493;51.884;5.188;2022-12-18T06:21:02;-5.40;99.90
18729;DHT22;9493;51.884;5.188;2022-12-18T06:23:29;-5.40;99.90
18729;DHT22;9493;51.884;5.188;2022-12-18T06:25:56;-5.40;99.90
18729;DHT22;9493;51.884;5.188;2022-12-18T06:28:23;-5.40;99.90
18729;DHT22;9493;51.884;5.188;2022-12-18T06:30:51;-5.40;99.90
18729;DHT22;9493;51.884;5.188;2022-12-18T06:33:18;-5.40;99.90
18729;DHT22;9493;51.884;5.188;2022-12-18T06:35:45;-5.50;99.90
18729;DHT22;9493;51.884;5.188;2022-12-18T06:38:12;-5.50;99.90
18729;DHT22;9493;51.884;5.188;2022-12-18T06:40:39;-5.50;99.90
18729;DHT22;9493;51.884;5.188;2022-12-18T06:43:06;-5.50;99.90
18729;DHT22;9493;51.884;5.188;2022-12-18T06:45:33;-5.40;99.90
18729;DHT22;9493;51.884;5.188;2022-12-18T06:48:01;-5.50;99.90
18729;DHT22;9493;51.884;5.188;2022-12-18T06:50:28;-5.60;99.90
18729;DHT22;9493;51.884;5.188;2022-12-18T06:52:55;-5.60;99.90
18729;DHT22;9493;51.884;5.188;2022-12-18T06:55:22;-5.60;99.90
18729;DHT22;9493;51.884;5.188;2022-12-18T06:57:49;-5.60;99.90
18729;DHT22;9493;51.884;5.188;2022-12-18T07:00:16;-5.60;99.90
18729;DHT22;9493;51.884;5.188;2022-12-18T07:02:43;-5.60;99.90
18729;DHT22;9493;51.884;5.188;2022-12-18T07:05:11;-5.70;99.90
18729;DHT22;9493;51.884;5.188;2022-12-18T07:07:38;-5.60;99.90
18729;DHT22;9493;51.884;5.188;2022-12-18T07:10:05;-5.70;99.90
18729;DHT22;9493;51.884;5.188;2022-12-18T07:12:32;-5.70;99.90
18729;DHT22;9493;51.884;5.188;2022-12-18T07:14:59;-5.60;99.90
18729;DHT22;9493;51.884;5.188;2022-12-18T07:17:25;-5.60;99.90
18729;DHT22;9493;51.884;5.188;2022-12-18T07:19:52;-5.60;99.90
18729;DHT22;9493;51.884;5.188;2022-12-18T07:22:20;-5.60;99.90
18729;DHT22;9493;51.884;5.188;2022-12-18T07:24:49;-5.60;99.90
18729;DHT22;9493;51.884;5.188;2022-12-18T07:27:16;-5.60;99.90
18729;DHT22;9493;51.884;5.188;2022-12-18T07:29:42;-5.60;99.90
18729;DHT22;9493;51.884;5.188;2022-12-18T07:32:09;-5.60;99.90
18729;DHT22;9493;51.884;5.188;2022-12-18T07:34:36;-5.60;99.90
18729;DHT22;9493;51.884;5.188;2022-12-18T07:37:03;-5.60;99.90
18729;DHT22;9493;51.884;5.188;2022-12-18T07:39:31;-5.50;99.90
18729;DHT22;9493;51.884;5.188;2022-12-18T07:41:58;-5.50;99.90
18729;DHT22;9493;51.884;5.188;2022-12-18T07:44:42;-5.40;99.90
18729;DHT22;9493;51.884;5.188;2022-12-18T07:47:09;-5.40;99.90
18729;DHT22;9493;51.884;5.188;2022-12-18T07:49:36;-5.40;99.90
18729;DHT22;9493;51.884;5.188;2022-12-18T07:52:03;-5.30;99.90
18729;DHT22;9493;51.884;5.188;2022-12-18T07:54:31;-5.30;99.90
18729;DHT22;9493;51.884;5.188;2022-12-18T07:56:58;-5.30;99.90
18729;DHT22;9493;51.884;5.188;2022-12-18T07:59:24;-5.30;99.90
18729;DHT22;9493;51.884;5.188;2022-12-18T08:01:51;-5.30;99.90
18729;DHT22;9493;51.884;5.188;2022-12-18T08:04:18;-5.20;99.90
18729;DHT22;9493;51.884;5.188;2022-12-18T08:06:46;-5.20;99.90
18729;DHT22;9493;51.884;5.188;2022-12-18T08:09:13;-5.20;99.90
18729;DHT22;9493;51.884;5.188;2022-12-18T08:11:41;-5.20;99.90
18729;DHT22;9493;51.884;5.188;2022-12-18T08:14:08;-5.10;99.90
18729;DHT22;9493;51.884;5.188;2022-12-18T08:16:35;-5.00;99.90
18729;DHT22;9493;51.884;5.188;2022-12-18T08:19:03;-5.00;99.90
18729;DHT22;9493;51.884;5.188;2022-12-18T08:21:31;-4.90;99.90
18729;DHT22;9493;51.884;5.188;2022-12-18T08:23:59;-4.90;99.90
18729;DHT22;9493;51.884;5.188;2022-12-18T08:26:28;-4.80;99.90
18729;DHT22;9493;51.884;5.188;2022-12-18T08:28:58;-4.70;99.90
18729;DHT22;9493;51.884;5.188;2022-12-18T08:31:26;-4.70;99.90
18729;DHT22;9493;51.884;5.188;2022-12-18T08:33:54;-4.60;99.90
18729;DHT22;9493;51.884;5.188;2022-12-18T08:36:22;-4.60;99.90
18729;DHT22;9493;51.884;5.188;2022-12-18T08:38:49;-4.50;99.90
18729;DHT22;9493;51.884;5.188;2022-12-18T08:41:17;-4.50;99.90
18729;DHT22;9493;51.884;5.188;2022-12-18T08:43:44;-4.40;99.90
18729;DHT22;9493;51.884;5.188;2022-12-18T08:46:33;-4.30;99.90
18729;DHT22;9493;51.884;5.188;2022-12-18T08:49:00;-4.10;99.90
18729;DHT22;9493;51.884;5.188;2022-12-18T08:51:27;-4.00;99.90
18729;DHT22;9493;51.884;5.188;2022-12-18T08:53:54;-3.80;99.90
18729;DHT22;9493;51.884;5.188;2022-12-18T08:56:20;-3.40;99.90
18729;DHT22;9493;51.884;5.188;2022-12-18T08:58:47;-3.50;99.90
18729;DHT22;9493;51.884;5.188;2022-12-18T09:01:14;-3.70;99.90
18729;DHT22;9493;51.884;5.188;2022-12-18T09:03:42;-3.80;99.90
18729;DHT22;9493;51.884;5.188;2022-12-18T09:06:14;-3.70;99.90
18729;DHT22;9493;51.884;5.188;2022-12-18T09:08:41;-3.70;99.90
18729;DHT22;9493;51.884;5.188;2022-12-18T09:11:13;-3.80;99.90
18729;DHT22;9493;51.884;5.188;2022-12-18T09:13:40;-3.80;99.90
18729;DHT22;9493;51.884;5.188;2022-12-18T09:16:07;-3.70;99.90
18729;DHT22;9493;51.884;5.188;2022-12-18T09:18:33;-3.70;99.90
18729;DHT22;9493;51.884;5.188;2022-12-18T09:21:07;-3.60;99.90
18729;DHT22;9493;51.884;5.188;2022-12-18T09:23:34;-3.60;99.90
18729;DHT22;9493;51.884;5.188;2022-12-18T09:26:01;-3.60;99.90
18729;DHT22;9493;51.884;5.188;2022-12-18T09:28:28;-3.50;99.90
18729;DHT22;9493;51.884;5.188;2022-12-18T09:30:55;-3.50;99.90
18729;DHT22;9493;51.884;5.188;2022-12-18T09:33:21;-3.40;99.90
18729;DHT22;9493;51.884;5.188;2022-12-18T09:35:48;-3.40;99.90
18729;DHT22;9493;51.884;5.188;2022-12-18T09:38:17;-3.40;99.90
18729;DHT22;9493;51.884;5.188;2022-12-18T09:40:47;-3.30;99.90
18729;DHT22;9493;51.884;5.188;2022-12-18T09:43:17;-3.30;99.90
18729;DHT22;9493;51.884;5.188;2022-12-18T09:45:47;-3.20;99.90
18729;DHT22;9493;51.884;5.188;2022-12-18T09:48:19;-3.20;99.90
18729;DHT22;9493;51.884;5.188;2022-12-18T09:50:48;-3.10;99.90
18729;DHT22;9493;51.884;5.188;2022-12-18T09:53:21;-3.10;99.90
18729;DHT22;9493;51.884;5.188;2022-12-18T09:55:51;-3.10;99.90
18729;DHT22;9493;51.884;5.188;2022-12-18T09:58:26;-3.00;99.90
18729;DHT22;9493;51.884;5.188;2022-12-18T10:00:55;-2.90;99.90
18729;DHT22;9493;51.884;5.188;2022-12-18T10:03:22;-2.90;99.90
18729;DHT22;9493;51.884;5.188;2022-12-18T10:05:57;-2.80;99.90
18729;DHT22;9493;51.884;5.188;2022-12-18T10:08:34;-2.70;99.90
18729;DHT22;9493;51.884;5.188;2022-12-18T10:11:24;-2.60;99.90
18729;DHT22;9493;51.884;5.188;2022-12-18T10:13:58;-2.50;99.90
18729;DHT22;9493;51.884;5.188;2022-12-18T10:16:31;-2.50;99.90
18729;DHT22;9493;51.884;5.188;2022-12-18T10:19:21;-2.40;99.90
18729;DHT22;9493;51.884;5.188;2022-12-18T10:21:56;-2.30;99.90
18729;DHT22;9493;51.884;5.188;2022-12-18T10:24:33;-2.30;99.90
18729;DHT22;9493;51.884;5.188;2022-12-18T10:27:12;-2.30;99.90
18729;DHT22;9493;51.884;5.188;2022-12-18T10:29:41;-2.20;99.90
18729;DHT22;9493;51.884;5.188;2022-12-18T10:32:14;-2.30;99.90
18729;DHT22;9493;51.884;5.188;2022-12-18T10:34:45;-2.30;99.90
18729;DHT22;9493;51.884;5.188;2022-12-18T10:37:15;-2.30;99.90
18729;DHT22;9493;51.884;5.188;2022-12-18T10:39:44;-2.20;99.90
18729;DHT22;9493;51.884;5.188;2022-12-18T10:42:17;-2.20;99.90
18729;DHT22;9493;51.884;5.188;2022-12-18T10:44:44;-2.20;99.90
18729;DHT22;9493;51.884;5.188;2022-12-18T10:47:14;-2.10;99.90
18729;DHT22;9493;51.884;5.188;2022-12-18T10:49:49;-2.10;99.90
18729;DHT22;9493;51.884;5.188;2022-12-18T10:52:19;-2.00;99.90
18729;DHT22;9493;51.884;5.188;2022-12-18T10:54:51;-2.00;99.90
18729;DHT22;9493;51.884;5.188;2022-12-18T10:57:33;-2.00;99.90
18729;DHT22;9493;51.884;5.188;2022-12-18T11:00:23;-1.90;99.90
18729;DHT22;9493;51.884;5.188;2022-12-18T11:02:50;-1.90;99.90
18729;DHT22;9493;51.884;5.188;2022-12-18T11:05:27;-1.80;99.90
18729;DHT22;9493;51.884;5.188;2022-12-18T11:07:55;-1.80;99.90
18729;DHT22;9493;51.884;5.188;2022-12-18T11:10:28;-1.70;99.90
18729;DHT22;9493;51.884;5.188;2022-12-18T11:12:55;-1.70;99.90
18729;DHT22;9493;51.884;5.188;2022-12-18T11:15:26;-1.60;99.90
18729;DHT22;9493;51.884;5.188;2022-12-18T11:17:55;-1.60;99.90
18729;DHT22;9493;51.884;5.188;2022-12-18T11:20:29;-1.60;99.90
18729;DHT22;9493;51.884;5.188;2022-12-18T11:22:58;-1.50;99.90
18729;DHT22;9493;51.884;5.188;2022-12-18T11:25:27;-1.50;99.90
18729;DHT22;9493;51.884;5.188;2022-12-18T11:27:56;-1.50;99.90
18729;DHT22;9493;51.884;5.188;2022-12-18T11:30:26;-1.40;99.90
18729;DHT22;9493;51.884;5.188;2022-12-18T11:33:00;-1.40;99.90
18729;DHT22;9493;51.884;5.188;2022-12-18T11:35:36;-1.40;99.90
18729;DHT22;9493;51.884;5.188;2022-12-18T11:38:12;-1.30;99.90
18729;DHT22;9493;51.884;5.188;2022-12-18T11:40:44;-1.30;99.90
18729;DHT22;9493;51.884;5.188;2022-12-18T11:43:15;-1.30;99.90
18729;DHT22;9493;51.884;5.188;2022-12-18T11:45:47;-1.10;99.90
18729;DHT22;9493;51.884;5.188;2022-12-18T11:48:18;-1.10;99.90
18729;DHT22;9493;51.884;5.188;2022-12-18T11:50:50;-1.00;99.90
18729;DHT22;9493;51.884;5.188;2022-12-18T11:53:18;-1.10;99.90
18729;DHT22;9493;51.884;5.188;2022-12-18T11:56:04;-0.90;99.90
18729;DHT22;9493;51.884;5.188;2022-12-18T11:58:50;-1.00;99.90
18729;DHT22;9493;51.884;5.188;2022-12-18T12:01:37;-1.00;99.90
18729;DHT22;9493;51.884;5.188;2022-12-18T12:04:28;-1.00;99.90
18729;DHT22;9493;51.884;5.188;2022-12-18T12:07:04;-1.00;99.90
18729;DHT22;9493;51.884;5.188;2022-12-18T12:09:39;-1.00;99.90
18729;DHT22;9493;51.884;5.188;2022-12-18T12:12:21;-1.00;99.90
18729;DHT22;9493;51.884;5.188;2022-12-18T12:14:58;-1.00;99.90
18729;DHT22;9493;51.884;5.188;2022-12-18T12:17:35;-0.90;99.90
18729;DHT22;9493;51.884;5.188;2022-12-18T12:20:08;-0.90;99.90
18729;DHT22;9493;51.884;5.188;2022-12-18T12:22:42;-0.80;99.90
18729;DHT22;9493;51.884;5.188;2022-12-18T12:25:25;-0.80;99.90
18729;DHT22;9493;51.884;5.188;2022-12-18T12:28:05;-0.80;99.90
18729;DHT22;9493;51.884;5.188;2022-12-18T12:30:39;-0.80;99.90
18729;DHT22;9493;51.884;5.188;2022-12-18T12:33:21;-0.80;99.90
18729;DHT22;9493;51.884;5.188;2022-12-18T12:35:55;-0.70;99.90
18729;DHT22;9493;51.884;5.188;2022-12-18T12:38:28;-0.70;99.90
18729;DHT22;9493;51.884;5.188;2022-12-18T12:40:59;-0.70;99.90
18729;DHT22;9493;51.884;5.188;2022-12-18T12:43:33;-0.70;99.90
18729;DHT22;9493;51.884;5.188;2022-12-18T12:46:03;-0.70;99.90
18729;DHT22;9493;51.884;5.188;2022-12-18T12:48:38;-0.70;99.90
18729;DHT22;9493;51.884;5.188;2022-12-18T12:51:11;-0.70;99.90
18729;DHT22;9493;51.884;5.188;2022-12-18T12:53:39;-0.70;99.90
18729;DHT22;9493;51.884;5.188;2022-12-18T12:56:08;-0.60;99.90
18729;DHT22;9493;51.884;5.188;2022-12-18T12:58:46;-0.60;99.90
18729;DHT22;9493;51.884;5.188;2022-12-18T13:01:23;-0.60;99.90
18729;DHT22;9493;51.884;5.188;2022-12-18T13:04:02;-0.60;99.90
18729;DHT22;9493;51.884;5.188;2022-12-18T13:06:39;-0.60;99.90
18729;DHT22;9493;51.884;5.188;2022-12-18T13:09:07;-0.50;99.90
18729;DHT22;9493;51.884;5.188;2022-12-18T13:11:39;-0.50;99.90
18729;DHT22;9493;51.884;5.188;2022-12-18T13:14:28;-0.50;99.90
18729;DHT22;9493;51.884;5.188;2022-12-18T13:17:15;-0.40;99.90
18729;DHT22;9493;51.884;5.188;2022-12-18T13:19:42;-0.40;99.90
18729;DHT22;9493;51.884;5.188;2022-12-18T13:22:21;-0.40;99.90
18729;DHT22;9493;51.884;5.188;2022-12-18T13:24:48;-0.40;99.90
18729;DHT22;9493;51.884;5.188;2022-12-18T13:27:46;-0.30;99.90
18729;DHT22;9493;51.884;5.188;2022-12-18T13:30:44;-0.40;99.90
18729;DHT22;9493;51.884;5.188;2022-12-18T13:33:42;-0.30;99.90
18729;DHT22;9493;51.884;5.188;2022-12-18T13:36:14;-0.40;99.90
18729;DHT22;9493;51.884;5.188;2022-12-18T13:38:41;-0.30;99.90
18729;DHT22;9493;51.884;5.188;2022-12-18T13:41:25;-0.40;99.90
18729;DHT22;9493;51.884;5.188;2022-12-18T13:43:53;-0.30;99.90
18729;DHT22;9493;51.884;5.188;2022-12-18T13:46:27;-0.40;99.90
18729;DHT22;9493;51.884;5.188;2022-12-18T13:48:57;-0.40;99.90
18729;DHT22;9493;51.884;5.188;2022-12-18T13:51:25;-0.40;99.90
18729;DHT22;9493;51.884;5.188;2022-12-18T13:53:55;-0.40;99.90
18729;DHT22;9493;51.884;5.188;2022-12-18T13:56:25;-0.30;99.90
18729;DHT22;9493;51.884;5.188;2022-12-18T13:59:13;-0.30;99.90
18729;DHT22;9493;51.884;5.188;2022-12-18T14:01:52;-0.30;99.90
18729;DHT22;9493;51.884;5.188;2022-12-18T14:04:22;-0.30;99.90
18729;DHT22;9493;51.884;5.188;2022-12-18T14:06:51;-0.30;99.90
18729;DHT22;9493;51.884;5.188;2022-12-18T14:09:21;-0.30;99.90
18729;DHT22;9493;51.884;5.188;2022-12-18T14:11:50;-0.20;99.90
18729;DHT22;9493;51.884;5.188;2022-12-18T14:14:18;-0.30;99.90
18729;DHT22;9493;51.884;5.188;2022-12-18T14:16:46;-0.20;99.90
18729;DHT22;9493;51.884;5.188;2022-12-18T14:19:16;-0.30;99.90
18729;DHT22;9493;51.884;5.188;2022-12-18T14:21:48;-0.20;99.90
18729;DHT22;9493;51.884;5.188;2022-12-18T14:24:18;-0.20;99.90
18729;DHT22;9493;51.884;5.188;2022-12-18T14:26:46;-0.20;99.90
18729;DHT22;9493;51.884;5.188;2022-12-18T14:29:21;-0.20;99.90
18729;DHT22;9493;51.884;5.188;2022-12-18T14:32:06;-0.20;99.90
18729;DHT22;9493;51.884;5.188;2022-12-18T14:34:34;-0.20;99.90
18729;DHT22;9493;51.884;5.188;2022-12-18T14:37:01;-0.20;99.90
18729;DHT22;9493;51.884;5.188;2022-12-18T14:39:28;-0.20;99.90
18729;DHT22;9493;51.884;5.188;2022-12-18T14:41:54;-0.10;99.90
18729;DHT22;9493;51.884;5.188;2022-12-18T14:44:21;-0.20;99.90
18729;DHT22;9493;51.884;5.188;2022-12-18T14:46:49;-0.20;99.90
18729;DHT22;9493;51.884;5.188;2022-12-18T14:49:23;-0.20;99.90
18729;DHT22;9493;51.884;5.188;2022-12-18T14:51:54;-0.20;99.90
18729;DHT22;9493;51.884;5.188;2022-12-18T14:54:22;-0.20;99.90
18729;DHT22;9493;51.884;5.188;2022-12-18T14:56:51;-0.20;99.90
18729;DHT22;9493;51.884;5.188;2022-12-18T14:59:23;-0.10;99.90
18729;DHT22;9493;51.884;5.188;2022-12-18T15:01:57;-0.10;99.90
18729;DHT22;9493;51.884;5.188;2022-12-18T15:04:27;-0.20;99.90
18729;DHT22;9493;51.884;5.188;2022-12-18T15:07:13;-0.20;99.90
18729;DHT22;9493;51.884;5.188;2022-12-18T15:09:41;-0.20;99.90
18729;DHT22;9493;51.884;5.188;2022-12-18T15:12:24;-0.20;99.90
18729;DHT22;9493;51.884;5.188;2022-12-18T15:14:52;-0.20;99.90
18729;DHT22;9493;51.884;5.188;2022-12-18T15:17:21;-0.20;99.90
18729;DHT22;9493;51.884;5.188;2022-12-18T15:19:49;-0.20;99.90
18729;DHT22;9493;51.884;5.188;2022-12-18T15:22:22;-0.20;99.90
18729;DHT22;9493;51.884;5.188;2022-12-18T15:24:49;-0.20;99.90
18729;DHT22;9493;51.884;5.188;2022-12-18T15:27:30;-0.20;99.90
18729;DHT22;9493;51.884;5.188;2022-12-18T15:30:18;-0.20;99.90
18729;DHT22;9493;51.884;5.188;2022-12-18T15:32:46;-0.20;99.90
18729;DHT22;9493;51.884;5.188;2022-12-18T15:35:17;-0.20;99.90
18729;DHT22;9493;51.884;5.188;2022-12-18T15:37:45;-0.20;99.90
18729;DHT22;9493;51.884;5.188;2022-12-18T15:40:14;-0.20;99.90
18729;DHT22;9493;51.884;5.188;2022-12-18T15:42:41;-0.20;99.90
18729;DHT22;9493;51.884;5.188;2022-12-18T15:45:26;-0.20;99.90
18729;DHT22;9493;51.884;5.188;2022-12-18T15:47:53;-0.20;99.90
18729;DHT22;9493;51.884;5.188;2022-12-18T15:50:20;-0.20;99.90
18729;DHT22;9493;51.884;5.188;2022-12-18T15:52:51;-0.10;99.90
18729;DHT22;9493;51.884;5.188;2022-12-18T15:55:19;-0.10;99.90
18729;DHT22;9493;51.884;5.188;2022-12-18T15:58:04;-0.10;99.90
18729;DHT22;9493;51.884;5.188;2022-12-18T16:00:31;-0.10;99.90
18729;DHT22;9493;51.884;5.188;2022-12-18T16:02:59;-0.10;99.90
18729;DHT22;9493;51.884;5.188;2022-12-18T16:05:28;-0.10;99.90
18729;DHT22;9493;51.884;5.188;2022-12-18T16:07:57;-0.10;99.90